Terminal Aerodrome Forecast
Issued by NWS

Home | Current Version | Previous Version | Text Only | Print | Product List | Glossary On
Versions: 1 2 3 4 5 6 7 8 9 10 11 12 13 14 15 16 17 18 19 20 21 22 23 24
000
FTUS43 KLSX 180900 AAA
TAFSUS
TAF AMD
KSUS 180913Z 1809/1906 08004KT P6SM OVC060
     FM181200 09004KT 6SM -SN OVC035
     FM181400 09005KT 2SM -SN BR OVC020
     FM181800 09004KT 5SM -DZ BR OVC007
     FM182300 06003KT 5SM BR OVC009=

USA.gov is the U.S. government's official web portal to all federal, state and local government web resources and services.